createdAt,value
2018-09-20T00:01:26.056Z,98158.41
2018-09-20T00:03:55.946Z,98160.58
2018-09-20T00:06:25.957Z,98159.57
2018-09-20T00:08:55.696Z,98157.66
2018-09-20T00:11:25.372Z,98158.33
2018-09-20T00:13:56.157Z,98160.31
2018-09-20T00:16:27.229Z,98158.14
2018-09-20T00:18:57.866Z,98152.84
2018-09-20T00:21:27.856Z,98151.05
2018-09-20T00:23:58.526Z,98144.34
2018-09-20T00:26:28.840Z,98151.70
2018-09-20T00:28:59.222Z,98148.05
2018-09-20T00:31:29.509Z,98143.55
2018-09-20T00:33:59.838Z,98137.45
2018-09-20T00:36:31.248Z,98139.16
2018-09-20T00:39:02.580Z,98139.16
2018-09-20T00:41:33.777Z,98143.96
2018-09-20T00:44:04.440Z,98136.69
2018-09-20T00:46:35.513Z,98134.37
2018-09-20T00:49:06.218Z,98135.70
2018-09-20T00:51:37.171Z,98140.45
2018-09-20T00:54:07.036Z,98135.16
2018-09-20T00:56:37.678Z,98134.37
2018-09-20T00:59:09.577Z,98133.13
2018-09-20T01:01:40.747Z,98136.30
2018-09-20T01:04:11.526Z,98135.59
2018-09-20T01:06:42.412Z,98132.99
2018-09-20T01:09:13.182Z,98132.95
2018-09-20T01:11:43.922Z,98129.56
2018-09-20T01:14:15.611Z,98127.73
2018-09-20T01:16:46.644Z,98131.91
2018-09-20T01:19:16.881Z,98129.27
2018-09-20T01:21:47.374Z,98127.94
2018-09-20T01:24:18.049Z,98118.59
2018-09-20T01:26:48.597Z,98124.28
2018-09-20T01:29:19.189Z,98119.92
2018-09-20T01:31:49.773Z,98123.42
2018-09-20T01:34:19.622Z,98128.72
2018-09-20T01:36:50.272Z,98123.84
2018-09-20T01:39:21.358Z,98126.81
2018-09-20T01:41:51.432Z,98129.14
2018-09-20T01:44:22.410Z,98128.13
2018-09-20T01:46:52.233Z,98129.38
2018-09-20T01:49:22.994Z,98135.61
2018-09-20T01:51:53.957Z,98132.96
2018-09-20T01:54:24.605Z,98130.00
2018-09-20T01:56:54.303Z,98131.37
2018-09-20T01:59:25.375Z,98126.89
2018-09-20T02:01:56.100Z,98122.66
2018-09-20T02:04:26.695Z,98129.97
2018-09-20T02:06:57.904Z,98133.51
2018-09-20T02:09:28.265Z,98134.48
2018-09-20T02:11:58.538Z,98130.59
2018-09-20T02:14:28.912Z,98130.52
2018-09-20T02:17:00.451Z,98135.77
2018-09-20T02:19:30.758Z,98130.94
2018-09-20T02:22:00.454Z,98123.00
2018-09-20T02:24:30.402Z,98128.14
2018-09-20T02:27:00.785Z,98130.78
2018-09-20T02:29:30.487Z,98134.68
2018-09-20T02:32:01.530Z,98138.26
2018-09-20T02:34:32.498Z,98136.66
2018-09-20T02:37:02.222Z,98132.84
2018-09-20T02:39:32.769Z,98129.27
2018-09-20T02:42:03.164Z,98124.91
2018-09-20T02:44:35.019Z,98123.00
2018-09-20T02:47:05.642Z,98125.96
2018-09-20T02:49:35.811Z,98116.03
2018-09-20T02:52:06.570Z,98121.41
2018-09-20T02:54:37.370Z,98121.20
2018-09-20T02:57:08.021Z,98127.63
2018-09-20T02:59:38.495Z,98128.08
2018-09-20T03:02:09.178Z,98131.92
2018-09-20T03:04:39.952Z,98128.07
2018-09-20T03:07:11.819Z,98125.77
2018-09-20T03:09:42.817Z,98132.78
2018-09-20T03:12:12.589Z,98129.28
2018-09-20T03:14:43.453Z,98130.33
2018-09-20T03:17:14.310Z,98129.39
2018-09-20T03:19:43.960Z,98132.47
2018-09-20T03:22:14.275Z,98124.92
2018-09-20T03:24:44.890Z,98127.88
2018-09-20T03:27:14.914Z,98127.34
2018-09-20T03:29:45.890Z,98131.31
2018-09-20T03:32:16.584Z,98128.07
2018-09-20T03:34:47.059Z,98135.95
2018-09-20T03:37:18.454Z,98133.23
2018-09-20T03:39:48.082Z,98135.02
2018-09-20T03:42:17.985Z,98133.37
2018-09-20T03:44:48.836Z,98129.34
2018-09-20T03:47:18.650Z,98138.52
2018-09-20T03:49:48.888Z,98130.66
2018-09-20T03:52:20.174Z,98135.16
2018-09-20T03:54:50.878Z,98130.80
2018-09-20T03:57:21.154Z,98127.73
2018-09-20T03:59:51.044Z,98133.02
2018-09-20T04:02:22.439Z,98129.91
2018-09-20T04:04:52.470Z,98126.87
2018-09-20T04:07:23.368Z,98132.63
2018-09-20T04:09:54.098Z,98126.41
2018-09-20T04:12:25.358Z,98126.84
2018-09-20T04:14:55.776Z,98132.16
2018-09-20T04:17:27.500Z,98129.52
2018-09-20T04:19:59.026Z,98127.27
2018-09-20T04:22:30.258Z,98133.87
2018-09-20T04:25:01.298Z,98136.52
2018-09-20T04:27:31.766Z,98144.53
2018-09-20T04:30:01.834Z,98141.49
2018-09-20T04:32:33.475Z,98139.78
2018-09-20T04:35:04.363Z,98146.86
2018-09-20T04:37:36.359Z,98138.71
2018-09-20T04:40:07.232Z,98141.28
2018-09-20T04:42:37.944Z,98151.00
2018-09-20T04:45:08.027Z,98149.83
2018-09-20T04:47:37.729Z,98148.44
2018-09-20T04:50:08.421Z,98150.14
2018-09-20T04:52:39.138Z,98154.97
2018-09-20T04:55:10.142Z,98150.43
2018-09-20T04:57:40.195Z,98147.56
2018-09-20T05:00:09.910Z,98145.46
2018-09-20T05:02:41.037Z,98150.56
2018-09-20T05:05:10.844Z,98146.45
2018-09-20T05:07:40.777Z,98157.89
2018-09-20T05:10:10.563Z,98149.48
2018-09-20T05:12:41.397Z,98152.41
2018-09-20T05:15:12.367Z,98158.30
2018-09-20T05:17:42.727Z,98150.57
2018-09-20T05:20:13.719Z,98153.81
2018-09-20T05:22:44.159Z,98012.67
2018-09-20T05:25:16.023Z,98155.46
2018-09-20T05:27:45.791Z,98150.78
2018-09-20T05:30:17.669Z,98156.32
2018-09-20T05:32:49.266Z,98155.58
2018-09-20T05:35:26.194Z,98155.75
2018-09-20T05:37:55.878Z,98164.52
2018-09-20T05:40:28.190Z,98160.88
2018-09-20T05:42:58.930Z,98158.80
2018-09-20T05:45:28.698Z,98152.12
2018-09-20T05:47:58.829Z,98158.04
2018-09-20T05:50:29.838Z,98154.84
2018-09-20T05:52:59.895Z,98161.39
2018-09-20T05:55:29.650Z,98157.06
2018-09-20T05:57:59.657Z,98165.03
2018-09-20T06:00:29.770Z,98166.35
2018-09-20T06:02:59.464Z,98167.16
2018-09-20T06:05:29.975Z,98159.66
2018-09-20T06:08:00.151Z,98165.55
2018-09-20T06:10:29.947Z,98167.23
2018-09-20T06:13:00.046Z,98168.02
2018-09-20T06:15:30.332Z,98166.95
2018-09-20T06:18:00.715Z,98169.47
2018-09-20T06:20:33.479Z,98163.95
2018-09-20T06:23:03.513Z,98168.08
2018-09-20T06:25:33.717Z,98169.52
2018-09-20T06:28:03.548Z,98132.69
2018-09-20T06:30:33.378Z,98170.57
2018-09-20T06:33:03.090Z,98166.16
2018-09-20T06:35:33.911Z,98174.27
2018-09-20T06:38:03.723Z,98175.73
2018-09-20T06:40:33.534Z,98172.92
2018-09-20T06:43:04.157Z,98182.84
2018-09-20T06:45:33.999Z,98178.36
2018-09-20T06:48:04.143Z,98185.30
2018-09-20T06:50:34.099Z,98181.16
2018-09-20T06:53:04.127Z,98179.16
2018-09-20T06:55:34.610Z,98180.94
2018-09-20T06:58:05.344Z,98185.81
2018-09-20T07:00:35.204Z,98185.09
2018-09-20T07:03:05.420Z,98177.59
2018-09-20T07:05:36.938Z,98184.89
2018-09-20T07:08:06.704Z,98182.04
2018-09-20T07:10:36.505Z,98186.48
2018-09-20T07:13:06.639Z,98179.86
2018-09-20T07:15:36.517Z,98180.92
2018-09-20T07:18:06.348Z,98181.14
2018-09-20T07:20:36.572Z,98179.80
2018-09-20T07:23:06.618Z,98189.63
2018-09-20T07:25:36.505Z,98182.72
2018-09-20T07:28:07.334Z,98186.07
2018-09-20T07:30:37.720Z,98184.80
2018-09-20T07:33:07.770Z,98185.88
2018-09-20T07:35:38.945Z,98179.25
2018-09-20T07:38:08.930Z,98183.52
2018-09-20T07:40:39.774Z,98184.75
2018-09-20T07:43:10.507Z,98188.09
2018-09-20T07:45:40.410Z,98195.47
2018-09-20T07:48:10.146Z,98191.95
2018-09-20T07:50:40.329Z,98189.53
2018-09-20T07:53:10.178Z,98195.00
2018-09-20T07:55:40.831Z,98202.31
2018-09-20T07:58:10.918Z,98203.27
2018-09-20T08:00:41.420Z,98200.42
2018-09-20T08:03:11.170Z,98205.83
2018-09-20T08:05:40.972Z,98199.11
2018-09-20T08:08:10.868Z,98197.11
2018-09-20T08:10:40.751Z,98205.34
2018-09-20T08:13:10.583Z,98205.66
2018-09-20T08:15:40.413Z,98203.17
2018-09-20T08:18:10.230Z,98208.38
2018-09-20T08:20:40.075Z,98205.41
2018-09-20T08:23:10.171Z,98201.62
2018-09-20T08:25:40.313Z,98204.13
2018-09-20T08:28:10.754Z,98207.14
2018-09-20T08:30:41.258Z,98206.09
2018-09-20T08:33:11.124Z,98203.92
2018-09-20T08:35:40.988Z,98206.95
2018-09-20T08:38:10.782Z,98198.63
2018-09-20T08:40:41.162Z,98200.95
2018-09-20T08:43:11.063Z,98200.89
2018-09-20T08:45:40.887Z,98193.34
2018-09-20T08:48:10.662Z,98194.94
2018-09-20T08:50:40.974Z,98189.69
2018-09-20T08:53:11.976Z,98190.87
2018-09-20T08:55:42.388Z,98189.16
2018-09-20T08:58:12.802Z,98185.98
2018-09-20T09:00:42.566Z,98183.13
2018-09-20T09:03:12.403Z,98186.28
2018-09-20T09:05:42.515Z,98184.46
2018-09-20T09:08:12.826Z,98178.66
2018-09-20T09:10:42.642Z,98175.27
2018-09-20T09:13:13.036Z,98175.09
2018-09-20T09:15:42.882Z,98166.16
2018-09-20T09:18:12.623Z,98166.34
2018-09-20T09:20:43.333Z,98161.08
2018-09-20T09:23:13.152Z,98163.63
2018-09-20T09:25:42.985Z,98160.31
2018-09-20T09:28:12.826Z,98162.19
2018-09-20T09:30:43.563Z,98170.38
2018-09-20T09:33:14.315Z,98163.03
2018-09-20T09:35:44.090Z,98164.99
2018-09-20T09:38:14.894Z,98158.83
2018-09-20T09:40:45.136Z,98156.18
2018-09-20T09:43:14.934Z,98156.66
2018-09-20T09:45:45.126Z,98156.41
2018-09-20T09:48:14.983Z,98156.79
2018-09-20T09:50:44.795Z,98151.86
2018-09-20T09:53:15.056Z,98145.47
2018-09-20T09:55:45.835Z,98139.78
2018-09-20T09:58:15.683Z,98137.42
2018-09-20T10:00:45.470Z,98135.22
2018-09-20T10:03:15.262Z,98129.67
2018-09-20T10:05:44.950Z,98127.33
2018-09-20T10:08:14.636Z,98127.30
2018-09-20T10:10:44.986Z,98126.73
2018-09-20T10:13:14.763Z,98126.80
2018-09-20T10:15:44.504Z,98114.52
2018-09-20T10:18:14.240Z,98119.89
2018-09-20T10:20:44.591Z,98118.73
2018-09-20T10:23:14.312Z,98113.59
2018-09-20T10:25:44.062Z,98110.91
2018-09-20T10:28:13.774Z,98114.27
2018-09-20T10:30:43.563Z,98107.49
2018-09-20T10:33:13.246Z,98100.94
2018-09-20T10:35:42.961Z,98105.73
2018-09-20T10:38:13.905Z,98100.48
2018-09-20T10:40:43.695Z,98098.20
2018-09-20T10:43:13.429Z,98096.33
2018-09-20T10:45:43.247Z,98087.45
2018-09-20T10:48:13.211Z,98086.83
2018-09-20T10:50:43.270Z,98086.31
2018-09-20T10:53:13.313Z,98083.39
2018-09-20T10:55:43.110Z,98085.48
2018-09-20T10:58:12.765Z,98079.52
2018-09-20T11:00:46.642Z,98074.28
2018-09-20T11:03:16.863Z,98078.02
2018-09-20T11:05:46.782Z,98074.14
2018-09-20T11:08:18.839Z,98071.97
2018-09-20T11:10:48.695Z,98073.39
2018-09-20T11:13:18.374Z,98062.58
2018-09-20T11:15:48.178Z,98062.72
2018-09-20T11:18:19.718Z,98055.59
2018-09-20T11:20:49.978Z,98052.91
2018-09-20T11:23:20.790Z,98052.52
2018-09-20T11:25:51.727Z,98055.42
2018-09-20T11:28:22.160Z,98049.22
2018-09-20T11:30:51.930Z,98047.18
2018-09-20T11:33:22.112Z,98052.65
2018-09-20T11:35:51.838Z,98050.31
2018-09-20T11:38:22.019Z,98044.59
2018-09-20T11:40:51.862Z,98039.10
2018-09-20T11:43:21.589Z,98036.80
2018-09-20T11:45:51.374Z,98033.67
2018-09-20T11:48:21.070Z,98035.74
2018-09-20T11:50:50.794Z,98037.44
2018-09-20T11:53:21.372Z,98033.75
2018-09-20T11:55:51.182Z,98025.53
2018-09-20T11:58:21.429Z,98023.01
2018-09-20T12:00:51.222Z,98018.38
2018-09-20T12:03:21.154Z,98019.09
2018-09-20T12:05:50.881Z,98015.58
2018-09-20T12:08:20.925Z,98015.60
2018-09-20T12:10:51.398Z,98011.98
2018-09-20T12:13:21.137Z,98004.30
2018-09-20T12:15:50.930Z,98003.42
2018-09-20T12:18:20.729Z,98008.69
2018-09-20T12:20:50.826Z,98001.36
2018-09-20T12:23:20.490Z,97998.30
2018-09-20T12:25:50.358Z,97994.94
2018-09-20T12:28:20.944Z,97994.75
2018-09-20T12:30:50.790Z,97995.34
2018-09-20T12:33:20.582Z,97996.47
2018-09-20T12:35:50.669Z,97988.36
2018-09-20T12:38:20.329Z,97984.23
2018-09-20T12:40:50.120Z,97983.51
2018-09-20T12:43:20.125Z,97979.31
2018-09-20T12:45:50.280Z,97976.49
2018-09-20T12:48:20.203Z,97976.25
2018-09-20T12:50:50.163Z,97979.89
2018-09-20T12:53:19.874Z,97974.79
2018-09-20T12:55:50.083Z,97969.06
2018-09-20T12:58:24.655Z,97968.91
2018-09-20T13:00:54.378Z,97967.30
2018-09-20T13:03:24.156Z,97962.91
2018-09-20T13:05:55.403Z,97960.89
2018-09-20T13:08:25.362Z,97952.13
2018-09-20T13:10:55.936Z,97954.41
2018-09-20T13:13:25.634Z,97959.55
2018-09-20T13:15:55.665Z,97949.70
2018-09-20T13:18:25.809Z,97949.62
2018-09-20T13:20:56.666Z,97944.98
2018-09-20T13:23:26.454Z,97941.83
2018-09-20T13:25:56.242Z,97943.94
2018-09-20T13:28:26.062Z,97947.84
2018-09-20T13:30:56.446Z,97936.03
2018-09-20T13:33:26.306Z,97937.73
2018-09-20T13:35:56.130Z,97939.79
2018-09-20T13:38:25.826Z,97938.19
2018-09-20T13:40:55.962Z,97930.50
2018-09-20T13:43:26.906Z,97937.46
2018-09-20T13:45:56.681Z,97926.88
2018-09-20T13:48:26.514Z,97932.73
2018-09-20T13:50:57.279Z,97931.02
2018-09-20T13:53:29.127Z,97927.74
2018-09-20T13:55:58.882Z,97923.23
2018-09-20T13:58:28.871Z,97919.70
2018-09-20T14:00:59.794Z,97915.05
2018-09-20T14:03:30.457Z,97918.98
2018-09-20T14:06:01.236Z,97904.33
2018-09-20T14:08:31.478Z,97913.48
2018-09-20T14:11:01.969Z,97907.27
2018-09-20T14:13:31.750Z,97904.72
2018-09-20T14:16:02.940Z,97912.77
2018-09-20T14:18:32.789Z,97909.45
2018-09-20T14:21:02.876Z,97903.23
2018-09-20T14:23:32.688Z,97899.34
2018-09-20T14:26:03.133Z,97910.55
2018-09-20T14:28:32.989Z,97901.75
2018-09-20T14:31:03.150Z,97893.84
2018-09-20T14:33:33.824Z,97897.39
2018-09-20T14:36:04.642Z,97902.16
2018-09-20T14:38:34.484Z,97901.88
2018-09-20T14:41:04.299Z,97893.39
2018-09-20T14:43:34.061Z,97898.49
2018-09-20T14:46:04.162Z,97895.82
2018-09-20T14:48:33.954Z,97900.48
2018-09-20T14:51:03.742Z,97895.12
2018-09-20T14:53:34.080Z,97896.09
2018-09-20T14:56:05.726Z,97903.52
2018-09-20T14:58:36.402Z,97890.38
2018-09-20T15:01:07.461Z,97891.59
2018-09-20T15:03:37.641Z,97897.31
2018-09-20T15:06:08.956Z,97894.05
2018-09-20T15:08:39.239Z,97893.20
2018-09-20T15:11:09.034Z,97891.38
2018-09-20T15:13:38.810Z,97886.86
2018-09-20T15:16:08.610Z,97890.88
2018-09-20T15:18:38.431Z,97885.52
2018-09-20T15:21:09.072Z,97887.98
2018-09-20T15:23:38.795Z,97888.83
2018-09-20T15:26:08.702Z,97888.47
2018-09-20T15:28:38.452Z,97889.81
2018-09-20T15:31:08.456Z,97885.07
2018-09-20T15:33:38.258Z,97885.62
2018-09-20T15:36:08.137Z,97886.60
2018-09-20T15:38:38.094Z,97885.30
2018-09-20T15:41:07.838Z,97882.36
2018-09-20T15:43:38.126Z,97883.70
2018-09-20T15:46:08.605Z,97881.15
2018-09-20T15:48:38.362Z,97879.09
2018-09-20T15:51:08.059Z,97879.77
2018-09-20T15:53:42.507Z,97878.56
2018-09-20T15:56:13.609Z,97878.46
2018-09-20T15:58:44.490Z,97875.78
2018-09-20T16:01:14.290Z,97872.12
2018-09-20T16:03:44.118Z,97881.97
2018-09-20T16:06:13.815Z,97880.75
2018-09-20T16:08:43.549Z,97874.66
2018-09-20T16:11:13.422Z,97882.32
2018-09-20T16:13:43.169Z,97874.77
2018-09-20T16:16:13.499Z,97873.98
2018-09-20T16:18:44.224Z,97875.53
2018-09-20T16:21:14.071Z,97879.16
2018-09-20T16:23:44.563Z,97871.37
2018-09-20T16:26:15.322Z,97870.70
2018-09-20T16:29:00.576Z,97861.45
2018-09-20T16:31:47.337Z,97868.23
2018-09-20T16:34:36.797Z,97875.98
2018-09-20T16:38:15.861Z,97878.62
2018-09-20T16:40:48.234Z,97878.20
2018-09-20T16:43:18.509Z,97873.43
2018-09-20T16:45:49.916Z,97881.47
2018-09-20T16:48:19.853Z,97878.76
2018-09-20T16:50:49.641Z,97874.34
2018-09-20T16:53:19.662Z,97869.94
2018-09-20T16:55:49.447Z,97870.38
2018-09-20T16:58:19.237Z,97872.16
2018-09-20T17:00:50.464Z,97873.00
2018-09-20T17:03:20.399Z,97870.77
2018-09-20T17:05:50.470Z,97870.36
2018-09-20T17:08:21.965Z,97872.21
2018-09-20T17:10:51.854Z,97874.83
2018-09-20T17:13:22.371Z,97873.56
2018-09-20T17:15:52.736Z,97875.78
2018-09-20T17:18:22.632Z,97877.46
2018-09-20T17:20:52.443Z,97872.44
2018-09-20T17:23:22.201Z,97876.87
2018-09-20T17:25:52.512Z,97881.30
2018-09-20T17:28:22.839Z,97880.98
2018-09-20T17:30:53.706Z,97889.89
2018-09-20T17:33:23.911Z,97885.91
2018-09-20T17:35:54.699Z,97888.54
2018-09-20T17:38:25.114Z,97890.17
2018-09-20T17:40:59.979Z,97892.25
2018-09-20T17:43:36.009Z,97894.72
2018-09-20T17:46:05.919Z,97897.47
2018-09-20T17:48:36.748Z,97895.40
2018-09-20T17:51:07.779Z,97904.55
2018-09-20T17:53:38.307Z,97903.92
2018-09-20T17:56:08.939Z,97912.23
2018-09-20T17:58:39.190Z,97907.89
2018-09-20T18:01:10.077Z,97904.37
2018-09-20T18:03:40.340Z,97907.72
2018-09-20T18:06:10.850Z,97903.27
2018-09-20T18:08:41.122Z,97907.56
2018-09-20T18:11:11.537Z,97911.86
2018-09-20T18:13:42.482Z,97913.41
2018-09-20T18:16:15.120Z,97908.84
2018-09-20T18:18:44.969Z,97909.62
2018-09-20T18:21:16.621Z,97914.31
2018-09-20T18:23:46.402Z,97911.08
2018-09-20T18:26:18.230Z,97910.89
2018-09-20T18:28:49.373Z,97911.21
2018-09-20T18:31:19.816Z,97923.00
2018-09-20T18:33:50.930Z,97917.59
2018-09-20T18:36:20.874Z,97919.88
2018-09-20T18:38:50.853Z,97917.98
2018-09-20T18:41:22.011Z,97922.73
2018-09-20T18:43:51.701Z,97922.09
2018-09-20T18:46:23.239Z,97924.38
2018-09-20T18:48:54.029Z,97925.41
2018-09-20T18:51:23.948Z,97927.09
2018-09-20T18:53:54.243Z,97930.99
2018-09-20T18:56:24.895Z,97924.65
2018-09-20T18:58:56.462Z,97925.88
2018-09-20T19:01:26.908Z,97928.92
2018-09-20T19:03:57.530Z,97924.34
2018-09-20T19:06:28.228Z,97920.94
2018-09-20T19:08:58.558Z,97919.52
2018-09-20T19:11:28.988Z,97920.91
2018-09-20T19:13:59.805Z,97923.95
2018-09-20T19:16:29.698Z,97921.39
2018-09-20T19:19:02.356Z,97916.06
2018-09-20T19:21:32.189Z,97919.95
2018-09-20T19:24:02.415Z,97925.09
2018-09-20T19:26:33.822Z,97923.77
2018-09-20T19:29:04.639Z,97925.74
2018-09-20T19:31:34.989Z,97922.43
2018-09-20T19:34:04.784Z,97926.97
2018-09-20T19:36:36.047Z,97924.41
2018-09-20T19:39:08.530Z,97917.07
2018-09-20T19:41:39.706Z,97924.56
2018-09-20T19:44:10.369Z,97920.87
2018-09-20T19:46:41.114Z,97921.80
2018-09-20T19:49:13.144Z,97919.06
2018-09-20T19:51:43.247Z,97928.84
2018-09-20T19:54:13.403Z,97921.89
2018-09-20T19:56:43.720Z,97921.58
2018-09-20T19:59:13.926Z,97919.50
2018-09-20T20:01:43.668Z,97913.02
2018-09-20T20:04:13.502Z,97920.41
2018-09-20T20:06:43.845Z,97919.63
2018-09-20T20:09:15.001Z,97915.52
2018-09-20T20:11:45.107Z,97914.77
2018-09-20T20:14:15.424Z,97911.42
2018-09-20T20:16:45.252Z,97914.81
2018-09-20T20:19:15.098Z,97919.94
2018-09-20T20:21:44.938Z,97917.72
2018-09-20T20:24:14.859Z,97914.31
2018-09-20T20:26:44.666Z,97915.99
2018-09-20T20:29:14.526Z,97919.13
2018-09-20T20:31:46.470Z,97913.30
2018-09-20T20:34:16.726Z,97915.36
2018-09-20T20:36:46.590Z,97917.73
2018-09-20T20:39:16.454Z,97915.62
2018-09-20T20:41:46.594Z,97915.11
2018-09-20T20:44:16.482Z,97916.91
2018-09-20T20:46:46.422Z,97920.89
2018-09-20T20:49:16.196Z,97913.59
2018-09-20T20:51:45.930Z,97913.02
2018-09-20T20:54:15.741Z,97918.99
2018-09-20T20:56:45.622Z,97914.22
2018-09-20T20:59:15.429Z,97914.22
2018-09-20T21:01:45.203Z,97915.36
2018-09-20T21:04:15.040Z,97910.05
2018-09-20T21:07:14.904Z,97914.03
2018-09-20T21:09:45.303Z,97914.81
2018-09-20T21:12:15.810Z,97916.77
2018-09-20T21:14:45.823Z,97909.38
2018-09-20T21:17:15.713Z,97911.45
2018-09-20T21:19:45.954Z,97909.38
2018-09-20T21:22:16.732Z,97909.38
2018-09-20T21:24:46.957Z,97911.70
2018-09-20T21:27:18.927Z,97908.58
2018-09-20T21:29:49.029Z,97908.95
2018-09-20T21:32:19.266Z,97907.44
2018-09-20T21:34:49.479Z,97909.23
2018-09-20T21:37:21.334Z,97906.36
2018-09-20T21:39:52.172Z,97903.47
2018-09-20T21:42:24.075Z,97902.33
2018-09-20T21:44:54.256Z,97900.87
2018-09-20T21:47:24.535Z,97906.41
2018-09-20T21:49:55.025Z,97898.12
2018-09-20T21:52:25.665Z,97901.48
2018-09-20T21:54:56.561Z,97900.62
2018-09-20T21:57:28.339Z,97897.80
2018-09-20T21:59:58.801Z,97889.16
2018-09-20T22:02:34.327Z,97891.02
2018-09-20T22:05:05.269Z,97887.79
2018-09-20T22:07:35.130Z,97892.30
2018-09-20T22:10:05.203Z,97887.55
2018-09-20T22:12:36.444Z,97889.73
2018-09-20T22:15:10.627Z,97883.48
2018-09-20T22:17:41.999Z,97880.74
2018-09-20T22:20:12.330Z,97880.45
2018-09-20T22:22:42.499Z,97879.36
2018-09-20T22:25:12.848Z,97875.15
2018-09-20T22:27:44.358Z,97868.76
2018-09-20T22:30:14.571Z,97876.23
2018-09-20T22:32:45.485Z,97868.84
2018-09-20T22:35:15.717Z,97863.78
2018-09-20T22:37:46.316Z,97867.00
2018-09-20T22:40:17.427Z,97868.89
2018-09-20T22:42:48.355Z,97866.23
2018-09-20T22:45:18.758Z,97864.91
2018-09-20T22:47:49.189Z,97865.85
2018-09-20T22:50:19.960Z,97863.82
2018-09-20T22:52:50.221Z,97866.56
2018-09-20T22:55:20.416Z,97859.13
2018-09-20T22:57:50.550Z,97854.72
2018-09-20T23:00:23.973Z,97855.58
2018-09-20T23:02:55.511Z,97855.81
2018-09-20T23:05:25.571Z,97852.54
2018-09-20T23:07:55.394Z,97850.13
2018-09-20T23:10:25.259Z,97852.59
2018-09-20T23:12:56.204Z,97850.83
2018-09-20T23:15:26.075Z,97853.16
2018-09-20T23:17:56.432Z,97848.80
2018-09-20T23:20:27.418Z,97841.88
2018-09-20T23:22:59.402Z,97842.88
2018-09-20T23:25:29.326Z,97837.81
2018-09-20T23:27:59.892Z,97839.31
2018-09-20T23:30:38.705Z,97841.98
2018-09-20T23:33:08.731Z,97835.87
2018-09-20T23:35:38.637Z,97840.41
2018-09-20T23:38:08.808Z,97835.11
2018-09-20T23:40:38.690Z,97838.70
2018-09-20T23:43:08.598Z,97839.86
2018-09-20T23:45:38.521Z,97839.18
2018-09-20T23:48:08.495Z,97836.53
2018-09-20T23:50:38.359Z,97835.25
2018-09-20T23:53:08.401Z,97836.46
2018-09-20T23:55:38.313Z,97833.81
2018-09-20T23:58:08.247Z,97827.57
